Terminal Aerodrome Forecast
Issued by NWS

Home | Current Version | Previous Version | Text Only | Print | Product List | Glossary On
Versions: 1 2 3 4 5 6 7 8 9 10 11 12 13 14 15 16 17 18 19 20 21 22 23 24 25 26 27 28 29
221
FTUS41 KBUF 231134
TAFIAG
TAF
KIAG 231134Z 2312/2412 07010G16KT 2SM BR OVC002
     FM231400 08011KT 4SM BR VCSH OVC007
     FM231500 08012KT P6SM VCSH OVC040
     FM231700 08012G18KT 6SM -RA OVC025
     FM240300 06012G21KT 2SM -SNPLRA OVC035
     FM240500 06012G20KT 2SM -SN OVC012
     FM240900 05010G18KT 2SM -SN OVC007=

USA.gov is the U.S. government's official web portal to all federal, state and local government web resources and services.